Time;durP1;ratioP1;P1;durP2;ratioP2;P2;SDS_P1;SDS_P2;PMS_P1;PMS_P2;Temp;Humidity;BMP_temperature;BMP_pressure;BME280_temperature;BME280_humidity;BME280_pressure;Samples;Min_cycle;Max_cycle;Signal;HPM_P1;HPM_P2
2021/11/12 00:13:25;;;;;;;9.70;2.40;;;;;;;6.30;85.02;100811.41;5005077;28;20093;-69
2021/11/12 00:15:55;;;;;;;14.07;2.58;;;;;;;6.34;85.25;100818.38;5005012;28;20045;-69
2021/11/12 00:18:24;;;;;;;14.60;2.05;;;;;;;6.27;85.07;100822.56;5004763;28;20073;-69
2021/11/12 00:20:51;;;;;;;16.38;2.60;;;;;;;6.33;84.70;100821.78;5004750;28;20037;-69
2021/11/12 00:23:18;;;;;;;10.90;1.83;;;;;;;6.35;84.77;100819.22;5004671;28;20034;-69
2021/11/12 00:25:47;;;;;;;8.60;1.90;;;;;;;6.38;85.11;100815.00;5004756;28;20027;-69
2021/11/12 00:28:18;;;;;;;14.75;2.17;;;;;;;6.33;84.66;100824.34;5004653;28;20165;-70
2021/11/12 00:33:41;;;;;;;17.25;3.15;;;;;;;6.39;85.46;100821.88;5027003;28;20022;-69
2021/11/12 00:41:37;;;;;;;19.20;3.25;;;;;;;6.45;86.00;100816.81;5026642;28;20069;-69
2021/11/12 00:44:23;;;;;;;21.85;2.65;;;;;;;6.50;86.00;100816.03;5026549;28;20426;-69
2021/11/12 00:46:52;;;;;;;18.30;3.50;;;;;;;6.45;85.88;100811.66;5026792;28;20021;-69
2021/11/12 00:49:22;;;;;;;13.77;2.80;;;;;;;6.40;85.87;100818.47;5026488;28;20505;-69
2021/11/12 00:51:51;;;;;;;19.90;2.55;;;;;;;6.40;85.78;100818.47;5026581;28;20041;-69
2021/11/12 00:54:20;;;;;;;20.17;4.15;;;;;;;6.35;85.45;100806.34;5026539;28;20053;-69
2021/11/12 00:56:49;;;;;;;14.73;2.58;;;;;;;6.41;85.69;100807.31;5025788;28;20112;-70
2021/11/12 00:59:16;;;;;;;9.13;2.50;;;;;;;6.41;85.82;100807.31;5026401;28;20025;-70
2021/11/12 01:01:41;;;;;;;13.60;2.30;;;;;;;6.42;85.94;100810.75;5026534;28;20026;-70
2021/11/12 01:04:10;;;;;;;14.90;2.72;;;;;;;6.41;86.30;100820.19;5026207;28;20056;-70
2021/11/12 01:06:37;;;;;;;13.05;2.67;;;;;;;6.41;86.21;100820.19;5026091;28;20025;-70
2021/11/12 01:09:09;;;;;;;20.02;2.25;;;;;;;6.40;86.42;100822.75;5026267;28;20144;-69
2021/11/12 01:11:35;;;;;;;15.73;2.38;;;;;;;6.36;86.04;100818.41;5026129;28;20441;-69
2021/11/12 01:14:03;;;;;;;8.55;2.38;;;;;;;6.32;86.10;100827.78;5026088;28;20045;-70
2021/11/12 01:16:30;;;;;;;8.50;1.77;;;;;;;6.25;86.17;100820.78;5026062;28;20052;-69
2021/11/12 01:18:56;;;;;;;23.65;4.50;;;;;;;6.19;85.87;100812.13;5026152;28;20041;-69
2021/11/12 01:21:22;;;;;;;12.50;2.00;;;;;;;6.18;85.87;100820.69;5024798;28;20461;-69
2021/11/12 01:23:50;;;;;;;6.45;1.80;;;;;;;6.20;86.20;100815.56;5024520;28;20026;-68
2021/11/12 01:26:17;;;;;;;9.95;1.80;;;;;;;6.19;86.15;100811.25;5025681;28;20030;-69
2021/11/12 01:28:43;;;;;;;9.65;2.67;;;;;;;6.15;85.96;100815.47;5025528;28;20053;-69
2021/11/12 01:31:09;;;;;;;12.35;2.15;;;;;;;6.17;86.06;100811.22;5026009;28;20029;-69
2021/11/12 01:33:35;;;;;;;12.85;2.75;;;;;;;6.17;86.42;100807.78;5025740;28;20030;-68
2021/11/12 01:36:13;;;;;;;14.40;2.20;;;;;;;6.19;86.40;100811.25;5025845;28;20301;-69
2021/11/12 01:38:39;;;;;;;13.40;2.53;;;;;;;6.19;86.53;100817.28;5025554;28;20405;-69
2021/11/12 01:41:04;;;;;;;8.63;1.88;;;;;;;6.17;86.59;100820.66;5025461;28;20025;-67
2021/11/12 01:43:37;;;;;;;13.55;1.98;;;;;;;6.15;86.45;100828.38;5025422;28;20036;-68
2021/11/12 01:53:36;;;;;;;10.73;2.17;;;;;;;6.02;86.45;100824.69;5025207;28;20031;-69
2021/11/12 01:56:25;;;;;;;8.85;2.30;;;;;;;5.96;86.26;100824.56;5025379;28;20029;-69
2021/11/12 02:01:29;;;;;;;12.07;2.30;;;;;;;5.98;85.76;100830.63;5025487;28;20108;-69
2021/11/12 02:03:54;;;;;;;17.55;2.80;;;;;;;6.01;85.79;100833.25;5025274;28;20030;-68
2021/11/12 02:06:23;;;;;;;12.73;2.20;;;;;;;6.05;85.97;100829.06;5025458;28;20028;-68
2021/11/12 02:08:50;;;;;;;13.05;2.67;;;;;;;6.04;85.53;100823.03;5023776;28;20065;-68
2021/11/12 02:11:17;;;;;;;13.40;1.90;;;;;;;6.04;85.51;100812.72;5024975;28;20018;-68
2021/11/12 02:13:43;;;;;;;11.32;1.80;;;;;;;6.04;85.11;100807.56;5024847;28;20109;-68
2021/11/12 02:16:16;;;;;;;12.52;2.38;;;;;;;6.07;85.40;100807.63;5025115;28;20029;-68
2021/11/12 02:18:44;;;;;;;8.48;2.35;;;;;;;6.08;85.60;100803.34;5024874;28;20033;-70
2021/11/12 02:21:18;;;;;;;18.05;2.20;;;;;;;6.05;85.66;100801.56;5025010;28;20060;-69
2021/11/12 02:23:49;;;;;;;14.68;2.17;;;;;;;6.05;85.97;100798.16;5024700;28;20053;-68
2021/11/12 02:26:22;;;;;;;8.35;2.00;;;;;;;6.04;86.27;100797.25;5025092;28;20030;-68
2021/11/12 02:28:52;;;;;;;11.75;2.25;;;;;;;5.99;86.32;100785.97;5024574;28;20045;-69
2021/11/12 02:31:18;;;;;;;9.45;1.70;;;;;;;6.03;86.49;100797.22;5025080;28;20045;-68
2021/11/12 02:33:44;;;;;;;6.25;1.90;;;;;;;5.99;86.38;100791.13;5024638;28;20022;-68
2021/11/12 02:36:17;;;;;;;12.50;2.13;;;;;;;5.98;86.12;100807.44;5024947;28;20101;-68
2021/11/12 02:38:46;;;;;;;12.18;1.88;;;;;;;5.91;86.14;100806.47;5023105;28;20137;-68
2021/11/12 02:41:11;;;;;;;10.68;1.90;;;;;;;5.91;86.18;100815.91;5023232;28;20087;-68
2021/11/12 02:43:39;;;;;;;14.02;2.00;;;;;;;5.93;86.46;100809.06;5024680;28;20493;-68
2021/11/12 02:46:06;;;;;;;11.68;1.92;;;;;;;5.91;86.58;100816.78;5024556;28;20048;-68
2021/11/12 02:48:35;;;;;;;9.48;2.13;;;;;;;5.87;86.76;100811.53;5024267;28;20033;-68
2021/11/12 02:51:07;;;;;;;11.88;1.90;;;;;;;5.91;86.68;100821.91;5024464;28;20076;-68
2021/11/12 02:53:32;;;;;;;8.40;2.30;;;;;;;5.90;86.76;100815.03;5024308;28;20022;-69
2021/11/12 02:56:02;;;;;;;9.35;1.92;;;;;;;5.88;86.73;100818.44;5024481;28;20477;-67
2021/11/12 02:58:30;;;;;;;16.08;2.20;;;;;;;5.87;86.82;100819.25;5024343;28;20052;-68
2021/11/12 03:00:55;;;;;;;9.40;2.03;;;;;;;5.83;86.84;100810.63;5024444;28;20025;-68
2021/11/12 03:03:22;;;;;;;17.30;2.53;;;;;;;5.84;87.11;100814.94;5024193;28;20018;-67
2021/11/12 03:05:47;;;;;;;16.55;1.90;;;;;;;5.78;86.65;100810.53;5024163;28;20026;-68
2021/11/12 03:08:13;;;;;;;13.25;2.03;;;;;;;5.78;86.64;100813.09;5023916;28;20028;-68
2021/11/12 03:10:38;;;;;;;12.38;2.85;;;;;;;5.77;86.73;100825.97;5022888;28;20033;-68
2021/11/12 03:13:05;;;;;;;18.20;2.58;;;;;;;5.78;86.72;100838.03;5024231;28;20022;-68
2021/11/12 03:15:30;;;;;;;14.93;2.10;;;;;;;5.79;86.88;100826.88;5024061;28;20052;-68
2021/11/12 03:17:58;;;;;;;11.80;2.17;;;;;;;5.83;86.97;100836.41;5024338;28;20013;-69
2021/11/12 03:20:24;;;;;;;16.38;2.70;;;;;;;5.87;87.09;100829.56;5023714;28;20018;-69
2021/11/12 03:22:57;;;;;;;12.73;1.83;;;;;;;5.91;87.13;100827.06;5023907;28;20026;-69
2021/11/12 03:25:35;;;;;;;16.15;1.95;;;;;;;5.95;87.14;100817.69;5022575;28;20018;-69
2021/11/12 03:28:14;;;;;;;12.10;1.88;;;;;;;5.93;87.29;100812.53;5023833;28;20030;-69
2021/11/12 03:56:29;;;;;;;17.88;1.83;;;;;;;6.56;87.81;100831.59;5023891;28;20044;-68
2021/11/12 04:01:23;;;;;;;10.60;3.03;;;;;;;6.63;88.10;100833.41;5023535;28;20032;-67
2021/11/12 04:20:12;;;;;;;12.52;1.95;;;;;;;6.51;88.02;100826.38;4962377;29;20019;-68
2021/11/12 04:41:59;;;;;;;18.98;2.25;;;;;;;5.95;87.46;100813.41;4985078;28;20070;-70
2021/11/12 05:43:47;;;;;;;10.77;2.30;;;;;;;5.97;90.08;100769.63;5025335;28;20037;-68
2021/11/12 05:57:11;;;;;;;8.60;1.98;;;;;;;6.41;90.15;100775.47;5003091;28;20037;-68
2021/11/12 05:59:37;;;;;;;8.85;1.95;;;;;;;6.40;89.32;100781.50;5002713;28;20046;-68
2021/11/12 06:02:06;;;;;;;9.30;1.88;;;;;;;6.28;89.34;100770.13;5002761;28;20041;-69
2021/11/12 06:04:33;;;;;;;11.82;2.05;;;;;;;6.12;89.06;100766.44;5002497;28;20026;-68
2021/11/12 06:06:59;;;;;;;4.47;1.55;;;;;;;6.02;89.17;100770.56;5002654;28;20034;-70
2021/11/12 06:09:25;;;;;;;9.93;1.80;;;;;;;5.98;89.12;100781.66;5002747;28;20038;-69
2021/11/12 06:11:54;;;;;;;10.35;2.75;;;;;;;5.86;89.00;100774.63;5002746;28;20034;-69
2021/11/12 06:14:26;;;;;;;16.20;2.88;;;;;;;5.83;89.17;100788.28;5002508;28;20197;-68
2021/11/12 06:16:52;;;;;;;14.98;2.25;;;;;;;5.78;89.14;100784.75;5002473;28;20031;-70
2021/11/12 06:19:18;;;;;;;13.45;2.15;;;;;;;5.67;88.40;100789.72;5002409;28;20030;-70
2021/11/12 06:21:45;;;;;;;15.05;2.05;;;;;;;5.52;88.52;100784.31;5005957;28;20058;-68
2021/11/12 06:24:11;;;;;;;6.15;1.65;;;;;;;5.44;88.77;100791.88;5024180;28;20060;-68
2021/11/12 06:26:38;;;;;;;9.00;2.50;;;;;;;5.33;88.74;100796.84;5024473;28;20029;-70
2021/11/12 06:29:04;;;;;;;8.05;1.63;;;;;;;5.29;88.86;100793.31;5024186;28;20053;-68
2021/11/12 06:31:30;;;;;;;14.68;2.03;;;;;;;5.43;89.27;100798.72;5024602;28;20131;-68
2021/11/12 06:33:55;;;;;;;6.55;1.65;;;;;;;5.44;89.68;100804.75;5022868;28;20497;-69
2021/11/12 06:36:23;;;;;;;11.45;2.08;;;;;;;5.44;89.66;100807.34;5023354;28;20409;-68
2021/11/12 06:38:49;;;;;;;10.15;2.25;;;;;;;5.43;89.75;100808.19;5024246;28;20057;-69
2021/11/12 06:41:17;;;;;;;10.40;1.92;;;;;;;5.41;89.69;100809.84;5024373;28;20421;-68
2021/11/12 06:44:09;;;;;;;8.25;1.77;;;;;;;5.41;89.94;100815.88;5024501;28;20081;-70
2021/11/12 06:49:30;;;;;;;12.75;2.00;;;;;;;5.38;90.02;100809.78;5024290;28;20037;-70
2021/11/12 06:51:55;;;;;;;9.07;1.80;;;;;;;5.38;90.13;100814.94;5024055;28;20473;-70
2021/11/12 06:54:21;;;;;;;11.35;2.00;;;;;;;5.39;90.01;100821.81;5023759;28;20086;-69
2021/11/12 06:56:47;;;;;;;10.23;2.17;;;;;;;5.36;90.07;100816.63;5024146;28;20056;-69
2021/11/12 06:59:13;;;;;;;11.85;1.88;;;;;;;5.41;90.05;100831.34;5023899;28;20021;-69
2021/11/12 07:01:39;;;;;;;10.65;1.83;;;;;;;5.37;90.12;100824.38;5024063;28;20030;-68
2021/11/12 07:04:04;;;;;;;23.42;2.58;;;;;;;5.39;90.19;100834.69;5023987;28;20075;-68
2021/11/12 07:06:30;;;;;;;12.43;2.67;;;;;;;5.45;90.30;100848.56;5023868;28;20034;-69
2021/11/12 07:08:55;;;;;;;14.60;2.85;;;;;;;5.48;90.22;100847.75;5023642;28;20026;-68
2021/11/12 07:11:22;;;;;;;12.20;1.90;;;;;;;5.49;90.18;100849.50;5023918;28;20018;-69
2021/11/12 07:13:48;;;;;;;13.45;1.70;;;;;;;5.49;89.66;100859.81;5023853;28;20026;-69
2021/11/12 07:16:14;;;;;;;12.85;2.60;;;;;;;5.42;89.61;100863.97;5023722;28;20077;-69
2021/11/12 07:18:39;;;;;;;12.40;2.53;;;;;;;5.32;89.92;100862.03;5023631;28;20045;-69
2021/11/12 07:21:05;;;;;;;20.63;2.42;;;;;;;5.28;89.84;100860.22;5023957;28;20026;-68
2021/11/12 07:23:31;;;;;;;18.10;2.55;;;;;;;5.30;89.76;100866.28;5022222;28;20072;-68
2021/11/12 07:25:57;;;;;;;17.60;3.85;;;;;;;5.26;89.96;100867.03;5023747;28;20087;-69
2021/11/12 07:28:27;;;;;;;22.38;2.70;;;;;;;5.29;90.32;100857.69;5023333;28;20054;-69
2021/11/12 07:30:54;;;;;;;8.27;2.30;;;;;;;5.35;90.48;100863.81;5023679;28;20026;-69
2021/11/12 07:33:20;;;;;;;15.25;2.65;;;;;;;5.42;90.64;100869.09;5023609;28;20018;-68
2021/11/12 07:35:51;;;;;;;19.88;3.05;;;;;;;5.49;90.76;100869.22;5023762;28;20101;-69
2021/11/12 07:38:29;;;;;;;12.13;2.60;;;;;;;5.55;90.95;100884.81;5023488;28;20374;-69
2021/11/12 07:48:30;;;;;;;19.45;2.60;;;;;;;5.81;91.39;100881.88;5023569;28;20112;-70
2021/11/12 07:50:55;;;;;;;8.75;2.22;;;;;;;5.97;91.24;100888.19;5022088;28;20493;-69
2021/11/12 07:53:21;;;;;;;19.33;4.00;;;;;;;6.07;90.96;100890.13;5023138;28;20026;-69
2021/11/12 07:55:46;;;;;;;13.38;2.25;;;;;;;6.10;90.80;100886.75;5023312;28;20022;-69
2021/11/12 07:58:12;;;;;;;17.05;3.15;;;;;;;6.17;90.67;100890.28;5023314;28;20448;-68
2021/11/12 08:00:37;;;;;;;13.00;3.65;;;;;;;6.23;90.78;100892.97;5023570;28;20025;-68
2021/11/12 08:03:03;;;;;;;14.45;2.67;;;;;;;6.32;90.87;100884.53;5023235;28;20164;-69
2021/11/12 08:05:30;;;;;;;18.83;4.00;;;;;;;6.36;90.01;100894.03;5023469;28;20076;-69
2021/11/12 08:08:02;;;;;;;16.05;2.58;;;;;;;6.25;89.42;100893.84;5025622;28;20027;-69
2021/11/12 08:10:31;;;;;;;18.02;3.05;;;;;;;6.17;89.66;100890.28;5027105;28;20026;-69
2021/11/12 08:13:05;;;;;;;20.70;3.33;;;;;;;6.15;90.17;100900.56;5027049;28;20041;-69
2021/11/12 08:18:10;;;;;;;17.13;2.83;;;;;;;6.17;90.27;100905.75;5027194;28;20025;-70
2021/11/12 08:20:41;;;;;;;17.95;3.45;;;;;;;6.16;90.17;100899.75;5027043;28;20026;-69
2021/11/12 08:23:24;;;;;;;15.50;3.55;;;;;;;6.20;90.38;100901.53;5026716;28;20033;-69
2021/11/12 08:26:04;;;;;;;19.33;2.58;;;;;;;6.24;90.52;100897.28;5026762;28;20037;-70
2021/11/12 08:41:41;;;;;;;14.32;2.53;;;;;;;9.73;85.85;100893.91;5026562;28;20026;-70
2021/11/12 08:44:27;;;;;;;11.03;2.43;;;;;;;10.19;85.11;100889.69;5026483;28;20021;-70
2021/11/12 08:47:08;;;;;;;14.13;2.65;;;;;;;10.58;84.47;100900.09;5025223;28;20014;-70
2021/11/12 08:49:35;;;;;;;20.50;2.63;;;;;;;10.97;82.46;100888.81;5026292;28;20474;-69
2021/11/12 08:52:03;;;;;;;11.63;2.60;;;;;;;11.36;81.55;100886.94;5026196;28;20072;-68
2021/11/12 08:54:35;;;;;;;16.05;2.42;;;;;;;11.73;80.60;100880.69;5024936;28;20029;-70
2021/11/12 08:57:00;;;;;;;9.45;3.17;;;;;;;12.03;80.43;100890.91;5026499;28;20025;-69
2021/11/12 08:59:26;;;;;;;11.57;2.35;;;;;;;12.39;80.13;100881.16;5026242;28;20033;-69
2021/11/12 09:01:51;;;;;;;11.73;2.58;;;;;;;13.04;79.39;100888.34;5026279;28;20025;-69
2021/11/12 09:04:17;;;;;;;15.65;3.47;;;;;;;13.60;77.52;100878.16;5024588;28;20025;-69
2021/11/12 09:06:44;;;;;;;13.55;2.60;;;;;;;13.97;76.01;100879.38;5026183;28;20089;-69
2021/11/12 09:09:10;;;;;;;12.43;2.95;;;;;;;14.09;75.52;100882.69;5025961;28;20022;-69
2021/11/12 09:11:38;;;;;;;14.07;3.67;;;;;;;13.59;74.69;100868.59;5026043;28;20026;-69
2021/11/12 09:14:06;;;;;;;9.57;3.40;;;;;;;12.94;75.41;100882.38;5026077;28;20053;-69
2021/11/12 09:16:34;;;;;;;11.10;2.58;;;;;;;12.37;77.56;100880.31;5026164;28;20053;-69
2021/11/12 09:19:00;;;;;;;12.32;2.72;;;;;;;12.48;77.94;100879.34;5025339;28;20013;-69
2021/11/12 09:21:26;;;;;;;23.55;4.40;;;;;;;12.54;77.75;100883.63;5026005;28;20125;-70
2021/11/12 09:23:56;;;;;;;11.90;3.33;;;;;;;12.64;77.76;100880.94;5025781;28;20137;-70
2021/11/12 09:26:22;;;;;;;10.52;2.65;;;;;;;13.07;77.68;100889.19;5025893;28;20053;-68
2021/11/12 09:28:48;;;;;;;14.25;2.88;;;;;;;13.79;76.39;100890.94;5025614;28;20048;-70
2021/11/12 09:31:15;;;;;;;13.48;3.38;;;;;;;14.04;75.59;100890.56;5025714;28;20474;-68
2021/11/12 09:33:41;;;;;;;12.38;2.70;;;;;;;13.70;74.79;100885.84;5024302;28;20034;-68
2021/11/12 09:36:08;;;;;;;11.27;2.60;;;;;;;13.36;74.93;100898.41;5025784;28;20069;-68
2021/11/12 09:38:34;;;;;;;12.93;2.97;;;;;;;13.39;75.29;100898.38;5024062;28;20113;-68
2021/11/12 09:41:00;;;;;;;16.45;4.00;;;;;;;13.65;74.68;100892.88;5025684;28;20100;-68
2021/11/12 09:43:25;;;;;;;12.75;2.60;;;;;;;14.14;73.55;100891.28;5024328;28;20449;-68
2021/11/12 09:45:53;;;;;;;15.70;3.90;;;;;;;14.23;73.01;100880.69;5025530;28;20060;-68
2021/11/12 09:48:19;;;;;;;13.13;3.20;;;;;;;14.66;73.27;100899.16;5025345;28;20034;-68
2021/11/12 09:50:45;;;;;;;17.80;3.75;;;;;;;15.02;70.84;100892.44;5025405;28;20030;-68
2021/11/12 09:53:10;;;;;;;12.65;3.83;;;;;;;15.44;71.08;100896.84;5025231;28;20048;-68
2021/11/12 09:55:36;;;;;;;18.20;3.20;;;;;;;15.73;71.19;100898.81;5023874;28;20036;-68
2021/11/12 09:58:03;;;;;;;19.88;3.25;;;;;;;15.97;70.12;100888.72;5025297;28;20036;-68
2021/11/12 10:00:31;;;;;;;11.90;2.97;;;;;;;16.30;69.78;100879.22;5025283;28;20532;-68
2021/11/12 10:02:58;;;;;;;20.23;3.50;;;;;;;16.18;69.06;100877.78;5025338;28;20041;-68
2021/11/12 10:05:53;;;;;;;11.32;2.88;;;;;;;15.43;70.13;100876.81;5025238;28;20026;-70
2021/11/12 10:08:27;;;;;;;15.25;3.28;;;;;;;14.53;71.42;100877.59;5025008;28;20121;-68
2021/11/12 10:11:02;;;;;;;13.55;3.08;;;;;;;13.79;72.94;100872.66;5025315;28;20025;-71
2021/11/12 10:13:33;;;;;;;15.38;3.95;;;;;;;13.29;73.75;100865.44;5025242;28;20450;-68
2021/11/12 10:19:01;;;;;;;16.42;3.35;;;;;;;12.67;75.00;100881.78;5025255;28;20030;-70
2021/11/12 10:21:32;;;;;;;23.33;3.58;;;;;;;12.59;74.38;100887.91;5025097;28;20022;-69
2021/11/12 10:24:04;;;;;;;14.40;2.60;;;;;;;12.91;74.95;100879.81;5023662;28;20053;-69
2021/11/12 10:26:32;;;;;;;12.80;3.10;;;;;;;13.27;73.73;100875.91;5024816;28;20037;-69
2021/11/12 10:29:11;;;;;;;14.02;2.60;;;;;;;13.75;72.97;100873.59;5024150;28;20041;-69
2021/11/12 10:31:43;;;;;;;13.38;2.95;;;;;;;14.14;71.23;100878.22;5024575;28;20032;-69
2021/11/12 10:34:14;;;;;;;14.02;2.75;;;;;;;14.70;69.91;100879.03;5024648;28;20032;-69
2021/11/12 10:37:00;;;;;;;12.40;3.20;;;;;;;15.19;69.19;100882.50;5024650;28;20477;-69
2021/11/12 10:39:26;;;;;;;11.50;2.35;;;;;;;15.76;68.06;100871.72;5024573;28;20520;-69
2021/11/12 10:41:52;;;;;;;13.57;3.45;;;;;;;16.21;67.18;100864.63;5024637;28;20456;-70
2021/11/12 10:44:17;;;;;;;14.20;2.97;;;;;;;16.60;66.57;100864.50;5024385;28;20036;-69
2021/11/12 10:46:44;;;;;;;17.55;3.13;;;;;;;17.15;65.99;100865.66;5024703;28;20044;-70
2021/11/12 10:49:31;;;;;;;10.65;2.97;;;;;;;17.89;64.14;100863.47;5024330;28;20089;-69
2021/11/12 10:52:17;;;;;;;14.80;2.80;;;;;;;18.01;62.62;100865.72;5024580;28;20052;-69
2021/11/12 10:54:49;;;;;;;19.60;3.17;;;;;;;18.25;60.36;100862.34;5023729;28;20037;-71
2021/11/12 10:57:16;;;;;;;11.88;3.08;;;;;;;18.37;60.69;100861.09;5024237;28;20032;-69
2021/11/12 11:00:03;;;;;;;19.13;3.85;;;;;;;17.57;61.42;100861.78;5024051;28;20014;-69
2021/11/12 11:02:50;;;;;;;15.68;4.32;;;;;;;16.78;62.73;100867.53;5024364;28;20034;-69
2021/11/12 11:05:26;;;;;;;14.32;4.15;;;;;;;16.44;63.10;100868.41;5022483;28;20065;-69
2021/11/12 11:07:59;;;;;;;12.93;3.35;;;;;;;15.92;62.85;100868.75;5023995;28;20024;-69
2021/11/12 11:10:35;;;;;;;23.48;3.85;;;;;;;15.01;64.40;100872.41;5024065;28;20026;-70
2021/11/12 11:13:10;;;;;;;17.63;3.10;;;;;;;14.20;66.62;100856.41;5023883;28;20029;-69
2021/11/12 11:16:01;;;;;;;17.27;3.58;;;;;;;13.41;68.32;100853.16;5023959;28;20021;-69
2021/11/12 11:18:35;;;;;;;17.45;4.50;;;;;;;12.65;67.94;100850.56;5024086;28;20424;-68
2021/11/12 11:23:48;;;;;;;21.33;4.15;;;;;;;11.08;70.93;100857.59;5023780;28;20036;-69
2021/11/12 11:26:35;;;;;;;21.83;3.65;;;;;;;10.57;72.33;100851.66;5023863;28;20026;-69
2021/11/12 11:29:02;;;;;;;16.65;4.45;;;;;;;10.14;74.24;100849.91;5016120;28;20041;-69
2021/11/12 11:31:29;;;;;;;19.83;4.03;;;;;;;9.90;75.85;100842.06;5023827;28;20034;-68
2021/11/12 11:33:56;;;;;;;21.00;4.03;;;;;;;9.81;75.75;100844.66;5023647;28;20034;-69
2021/11/12 11:36:24;;;;;;;13.85;3.15;;;;;;;9.60;76.42;100843.75;5023736;28;20505;-69
2021/11/12 11:38:51;;;;;;;23.73;4.13;;;;;;;9.50;77.22;100849.78;5023512;28;20041;-69
2021/11/12 11:41:19;;;;;;;18.23;3.00;;;;;;;9.40;77.61;100852.34;5023340;28;20081;-68
2021/11/12 11:43:46;;;;;;;22.48;4.07;;;;;;;9.23;78.28;100860.06;5023507;28;20025;-68
2021/11/12 11:46:34;;;;;;;21.30;4.30;;;;;;;9.20;79.27;100861.75;5023491;28;20022;-69
2021/11/12 11:49:02;;;;;;;20.90;4.28;;;;;;;9.28;79.92;100860.06;5023499;28;20450;-69
2021/11/12 11:51:34;;;;;;;19.95;4.25;;;;;;;9.32;80.09;100869.56;5023688;28;20030;-68
2021/11/12 11:54:01;;;;;;;;;;;;;;;9.33;79.55;100868.72;5023883;28;20030;-69
2021/11/12 11:56:29;;;;;;;19.33;3.65;;;;;;;9.17;79.49;100868.66;5023511;28;19909;-69
2021/11/12 11:58:58;;;;;;;21.58;4.22;;;;;;;9.07;80.48;100860.81;5023438;28;20528;-69
2021/11/12 12:01:24;;;;;;;14.10;5.03;;;;;;;9.10;81.00;100858.25;5023421;28;20026;-69
2021/11/12 12:03:51;;;;;;;18.55;3.83;;;;;;;9.17;81.32;100857.41;5023346;28;20084;-69
2021/11/12 12:06:18;;;;;;;16.73;3.90;;;;;;;9.21;81.65;100860.88;5023467;28;20017;-69
2021/11/12 12:08:49;;;;;;;23.83;3.90;;;;;;;9.28;81.90;100852.31;5022966;28;20026;-69
2021/11/12 12:11:18;;;;;;;12.57;3.72;;;;;;;9.35;81.65;100855.75;5022182;28;20400;-69
2021/11/12 12:13:43;;;;;;;16.65;3.85;;;;;;;9.35;81.92;100856.63;5023480;28;20028;-69
2021/11/12 12:16:09;;;;;;;17.52;2.97;;;;;;;9.37;81.86;100849.75;5023268;28;20106;-69
2021/11/12 12:18:47;;;;;;;20.33;5.40;;;;;;;9.41;82.12;100842.81;5023460;28;20025;-69
2021/11/12 12:33:38;;;;;;;12.80;3.67;;;;;;;9.04;80.37;100826.28;5023416;28;20032;-69
2021/11/12 13:25:51;;;;;;;18.63;3.50;;;;;;;8.53;82.12;100771.63;5026014;28;20061;-68
2021/11/12 13:28:34;;;;;;;19.23;4.55;;;;;;;8.45;82.41;100776.72;5025756;28;20111;-68
2021/11/12 13:31:14;;;;;;;9.73;1.48;;;;;;;8.38;83.13;100770.66;5025874;28;20033;-69
2021/11/12 13:33:58;;;;;;;6.47;2.15;;;;;;;8.38;82.64;100756.84;5025819;28;20053;-69
2021/11/12 13:36:30;;;;;;;8.75;2.28;;;;;;;8.33;83.36;100768.88;5025679;28;20097;-69
2021/11/12 13:38:55;;;;;;;;;;;;;;;8.37;83.23;100760.31;5025883;28;20059;-69
2021/11/12 13:41:25;;;;;;;24.35;3.33;;;;;;;8.37;83.14;100758.56;5025889;28;19909;-69
2021/11/12 13:43:57;;;;;;;9.80;2.83;;;;;;;8.36;83.10;100754.25;5024176;28;20037;-69
2021/11/12 13:46:22;;;;;;;;;;;;;;;8.51;82.23;100747.47;5025891;28;20022;-70
2021/11/12 13:48:53;;;;;;;17.58;2.55;;;;;;;8.32;82.54;100742.19;5025518;28;19916;-69
2021/11/12 13:51:29;;;;;;;12.38;2.78;;;;;;;8.24;83.16;100744.69;5025722;28;20040;-69
2021/11/12 13:53:56;;;;;;;13.98;2.90;;;;;;;8.13;83.70;100738.59;5025192;28;20053;-69
2021/11/12 13:56:22;;;;;;;15.70;2.45;;;;;;;8.24;83.26;100746.44;5025257;28;20499;-70
2021/11/12 13:58:47;;;;;;;17.95;3.30;;;;;;;8.11;83.69;100746.34;5024123;28;20034;-69
2021/11/12 14:01:19;;;;;;;11.93;2.88;;;;;;;8.17;83.87;100738.63;5025253;28;20026;-69
2021/11/12 14:03:45;;;;;;;11.98;2.35;;;;;;;8.08;84.33;100738.56;5023525;28;20033;-69
2021/11/12 14:06:11;;;;;;;16.25;2.25;;;;;;;8.18;83.60;100740.34;5025027;28;20107;-70
2021/11/12 14:08:48;;;;;;;13.23;2.45;;;;;;;7.99;84.97;100738.47;5023560;28;20028;-69
2021/11/12 14:11:29;;;;;;;13.10;2.45;;;;;;;8.11;83.77;100737.72;5025285;28;20033;-70
2021/11/12 14:14:03;;;;;;;7.70;2.10;;;;;;;7.96;84.78;100744.50;5023761;28;20052;-69
2021/11/12 14:16:33;;;;;;;9.05;1.92;;;;;;;8.00;84.29;100745.41;5023619;28;20473;-69
2021/11/12 14:24:41;;;;;;;10.80;1.83;;;;;;;8.11;83.78;100737.72;5024704;28;20046;-69
2021/11/12 14:53:41;;;;;;;11.35;2.75;;;;;;;7.60;86.44;100704.56;5024106;28;20030;-70
2021/11/12 14:58:47;;;;;;;10.98;2.70;;;;;;;7.57;86.09;100692.50;5024426;28;20057;-69
2021/11/12 15:01:16;;;;;;;6.28;2.22;;;;;;;7.80;85.14;100686.63;5023037;28;20052;-70
2021/11/12 15:03:43;;;;;;;25.20;3.47;;;;;;;7.66;85.88;100673.63;5024501;28;20036;-69
2021/11/12 15:06:11;;;;;;;11.38;2.00;;;;;;;7.79;84.99;100675.44;5022599;28;20037;-69
2021/11/12 15:08:48;;;;;;;16.23;2.58;;;;;;;7.56;85.34;100667.50;5023785;28;20025;-69
2021/11/12 15:11:15;;;;;;;7.88;1.95;;;;;;;7.66;85.32;100669.31;5022562;28;20026;-69
2021/11/12 15:13:43;;;;;;;13.27;2.15;;;;;;;7.53;85.88;100663.19;5024031;28;20025;-70
2021/11/12 15:16:27;;;;;;;10.80;2.30;;;;;;;7.85;84.44;100668.56;5023392;28;20022;-69
2021/11/12 15:18:57;;;;;;;9.38;1.83;;;;;;;7.86;84.04;100662.56;5023820;28;20040;-69
2021/11/12 15:31:56;;;;;;;8.77;1.95;;;;;;;7.46;85.86;100668.28;5023781;28;20037;-70
2021/11/12 15:34:22;;;;;;;15.55;3.35;;;;;;;7.35;85.77;100668.19;5023681;28;20429;-69
2021/11/12 15:36:58;;;;;;;14.35;2.83;;;;;;;7.56;85.15;100672.66;5023534;28;20477;-69
2021/11/12 15:39:36;;;;;;;10.05;2.55;;;;;;;7.52;85.01;100668.34;5023481;28;20022;-69
2021/11/12 15:42:19;;;;;;;8.98;2.55;;;;;;;7.51;85.36;100669.16;5023591;28;20022;-68
2021/11/12 15:44:47;;;;;;;11.02;1.73;;;;;;;7.52;85.16;100647.66;5023630;28;20049;-68
2021/11/12 15:47:22;;;;;;;12.30;3.05;;;;;;;7.49;84.86;100664.00;5023711;28;20018;-71
2021/11/12 15:49:51;;;;;;;6.07;1.48;;;;;;;7.66;84.10;100661.56;5023829;28;20152;-68
2021/11/12 15:52:27;;;;;;;3.83;1.17;;;;;;;7.77;83.20;100646.13;5023641;28;20597;-69
2021/11/12 15:55:07;;;;;;;3.97;0.88;;;;;;;7.64;84.02;100654.63;5023303;28;20393;-68
2021/11/12 16:00:38;;;;;;;4.43;1.70;;;;;;;7.59;83.45;100646.84;5023145;28;20028;-69
2021/11/12 16:06:28;;;;;;;9.73;2.97;;;;;;;7.38;84.47;100648.41;5015806;28;20049;-71
2021/11/12 16:09:01;;;;;;;5.07;1.73;;;;;;;7.37;84.97;100657.00;5022532;28;20044;-73
2021/11/12 16:14:00;;;;;;;9.27;3.22;;;;;;;7.59;83.59;100661.50;5023103;28;20044;-73
2021/11/12 16:24:56;;;;;;;9.75;2.38;;;;;;;7.44;84.44;100663.94;5023112;28;20045;-72
2021/11/12 16:27:22;;;;;;;4.80;1.50;;;;;;;7.77;82.99;100659.06;5023222;28;20045;-73
2021/11/12 16:29:49;;;;;;;5.60;1.58;;;;;;;7.62;83.44;100649.47;5026139;28;20052;-76
2021/11/12 16:32:50;;;;;;;6.18;1.50;;;;;;;7.38;84.27;100653.56;5026420;28;20057;-74
2021/11/12 16:35:11;;;;;;;9.18;2.22;;;;;;;7.47;84.05;100646.75;5025250;28;20034;-75
2021/11/12 16:37:36;;;;;;;8.15;2.17;;;;;;;7.31;84.50;100646.63;5026554;28;20173;-72
2021/11/12 16:40:07;;;;;;;6.95;1.55;;;;;;;7.49;83.63;100651.06;5026843;28;20469;-74
2021/11/12 16:42:57;;;;;;;8.27;2.17;;;;;;;7.24;84.81;100653.44;5026685;28;20077;-71
2021/11/12 16:58:27;;;;;;;21.30;3.25;;;;;;;7.26;84.54;100653.47;5026610;28;20061;-72
2021/11/12 18:07:56;;;;;;;7.07;1.95;;;;;;;7.07;84.92;100599.94;5024661;28;20029;-73
2021/11/12 21:45:34;;;;;;;6.20;2.25;;;;;;;6.81;87.02;100610.00;5025844;28;20057;-72
2021/11/12 21:47:59;;;;;;;7.70;2.55;;;;;;;6.86;86.58;100616.09;5025611;28;20026;-71
2021/11/12 21:50:25;;;;;;;10.32;2.80;;;;;;;6.93;86.29;100617.88;5025181;28;20056;-71
2021/11/12 21:52:51;;;;;;;6.90;2.53;;;;;;;7.01;85.17;100614.50;5025294;28;20033;-71
2021/11/12 21:55:16;;;;;;;9.15;3.10;;;;;;;7.08;84.42;100618.88;5025149;28;20022;-71